Time;durP1;ratioP1;P1;durP2;ratioP2;P2;SDS_P1;SDS_P2;PMS_P1;PMS_P2;Temp;Humidity;BMP_temperature;BMP_pressure;BME280_temperature;BME280_humidity;BME280_pressure;Samples;Min_cycle;Max_cycle;Signal;HPM_P1;HPM_P2
2023/05/01 00:02:25;;;;;;;4.85;4.28;;;9.90;75.00;;;;;;5041593;28;20717;-90
2023/05/01 00:04:53;;;;;;;6.72;4.03;;;9.90;74.90;;;;;;5062303;28;20214;-91
2023/05/01 00:07:19;;;;;;;4.97;4.22;;;9.90;74.90;;;;;;5060916;28;20214;-89
2023/05/01 00:09:46;;;;;;;4.45;3.83;;;9.90;74.90;;;;;;5063112;28;20292;-90
2023/05/01 00:12:16;;;;;;;5.38;4.00;;;9.90;74.90;;;;;;5059598;28;20206;-90
2023/05/01 00:14:43;;;;;;;6.38;4.22;;;9.90;74.90;;;;;;5064482;28;20206;-90
2023/05/01 00:17:10;;;;;;;4.72;4.28;;;9.90;74.90;;;;;;5065050;28;20197;-91
2023/05/01 00:19:37;;;;;;;4.93;4.18;;;9.90;74.90;;;;;;5059147;28;20203;-90
2023/05/01 00:22:04;;;;;;;4.88;4.13;;;9.90;74.90;;;;;;5063285;28;20198;-91
2023/05/01 00:24:31;;;;;;;6.07;4.35;;;9.90;74.90;;;;;;5060958;28;20285;-90
2023/05/01 00:26:58;;;;;;;4.80;4.13;;;9.80;75.40;;;;;;5079120;28;20217;-91
2023/05/01 00:29:26;;;;;;;4.93;4.35;;;9.80;74.80;;;;;;5058430;28;20201;-91
2023/05/01 00:31:54;;;;;;;4.55;4.07;;;9.80;74.80;;;;;;5062557;28;20216;-91
2023/05/01 00:34:22;;;;;;;4.68;4.20;;;9.80;75.70;;;;;;5060172;28;20195;-91
2023/05/01 00:36:49;;;;;;;5.95;4.10;;;9.80;75.70;;;;;;5063181;28;20273;-91
2023/05/01 00:39:16;;;;;;;4.90;4.40;;;9.70;76.00;;;;;;5061975;28;20202;-90
2023/05/01 00:41:43;;;;;;;4.78;4.28;;;9.70;76.40;;;;;;5063133;28;20201;-91
2023/05/01 00:44:10;;;;;;;6.40;4.72;;;9.70;77.00;;;;;;5059770;28;20236;-90
2023/05/01 00:46:38;;;;;;;4.53;4.00;;;9.60;78.40;;;;;;5054683;28;20303;-90
2023/05/01 00:49:05;;;;;;;4.72;4.03;;;9.60;78.60;;;;;;5060968;28;20206;-90
2023/05/01 00:51:33;;;;;;;6.65;4.05;;;9.60;78.40;;;;;;5062886;28;20204;-90
2023/05/01 00:54:00;;;;;;;5.25;4.75;;;9.60;78.60;;;;;;5063136;28;20198;-91
2023/05/01 00:56:27;;;;;;;6.95;4.78;;;9.50;79.30;;;;;;5055330;28;20229;-91
2023/05/01 00:58:55;;;;;;;5.85;4.68;;;9.50;80.00;;;;;;5055483;28;20204;-91
2023/05/01 01:01:23;;;;;;;5.40;4.85;;;9.50;81.40;;;;;;5065842;28;20214;-90
2023/05/01 01:03:51;;;;;;;8.38;4.80;;;9.40;82.30;;;;;;5061329;28;20222;-91
2023/05/01 01:06:30;;;;;;;6.28;4.88;;;9.40;81.70;;;;;;5067117;28;20233;-90
2023/05/01 01:09:13;;;;;;;6.05;4.85;;;9.30;82.80;;;;;;5056798;28;20202;-89
2023/05/01 01:11:48;;;;;;;6.05;5.03;;;9.30;83.20;;;;;;5060026;28;20201;-90
2023/05/01 01:14:19;;;;;;;7.85;5.40;;;9.30;83.20;;;;;;5065979;28;20220;-89
2023/05/01 01:16:54;;;;;;;5.22;4.63;;;9.20;84.30;;;;;;5057190;28;20202;-90
2023/05/01 01:20:05;;;;;;;5.45;4.70;;;9.20;84.90;;;;;;5063109;28;20193;-91
2023/05/01 01:22:36;;;;;;;6.03;5.18;;;9.20;85.10;;;;;;5060802;28;20206;-91
2023/05/01 01:25:40;;;;;;;6.85;5.25;;;9.20;85.20;;;;;;5065230;28;20224;-90
2023/05/01 01:28:22;;;;;;;8.02;5.13;;;9.20;85.50;;;;;;5058025;28;20316;-87
2023/05/01 01:31:14;;;;;;;5.82;5.00;;;9.10;86.90;;;;;;5063352;28;20849;-91
2023/05/01 01:34:01;;;;;;;5.63;5.07;;;9.00;87.00;;;;;;5057629;28;20203;-91
2023/05/01 01:36:40;;;;;;;5.63;5.00;;;9.00;88.10;;;;;;5061102;28;20296;-90
2023/05/01 01:39:16;;;;;;;7.22;5.10;;;9.00;87.90;;;;;;5059406;28;20197;-91
2023/05/01 01:41:49;;;;;;;6.05;5.45;;;8.90;88.70;;;;;;5064896;28;20201;-90
2023/05/01 01:44:20;;;;;;;6.20;5.35;;;9.00;89.00;;;;;;5068261;28;20241;-90
2023/05/01 01:46:49;;;;;;;9.63;5.22;;;9.00;89.00;;;;;;5064049;28;20203;-90
2023/05/01 01:49:21;;;;;;;6.45;5.15;;;9.00;88.70;;;;;;5069650;28;20228;-90
2023/05/01 01:51:51;;;;;;;5.90;5.00;;;8.90;89.10;;;;;;5070686;28;20512;-91
2023/05/01 01:54:23;;;;;;;5.75;4.95;;;8.90;89.80;;;;;;5067399;28;20296;-90
2023/05/01 01:56:51;;;;;;;5.93;5.18;;;8.90;90.20;;;;;;5065628;28;20266;-90
2023/05/01 01:59:20;;;;;;;7.90;5.47;;;8.80;90.40;;;;;;5064458;28;20202;-90
2023/05/01 02:01:48;;;;;;;5.80;5.30;;;8.80;90.40;;;;;;5065442;28;20197;-92
2023/05/01 02:04:17;;;;;;;7.30;5.50;;;8.80;90.40;;;;;;5066196;28;20662;-90
2023/05/01 02:06:45;;;;;;;5.38;4.88;;;8.80;90.40;;;;;;5066579;28;20205;-87
2023/05/01 02:09:14;;;;;;;8.10;5.35;;;8.80;90.40;;;;;;5071331;28;20198;-90
2023/05/01 02:11:42;;;;;;;5.88;5.28;;;8.80;90.40;;;;;;5064434;28;20182;-89
2023/05/01 02:14:10;;;;;;;5.63;5.10;;;8.70;90.40;;;;;;5068280;28;20308;-89
2023/05/01 02:16:37;;;;;;;5.75;5.10;;;8.70;90.40;;;;;;5132719;22;20302;-92
2023/05/01 02:19:05;;;;;;;6.47;5.15;;;8.70;90.40;;;;;;5050574;28;20210;-91
2023/05/01 02:21:37;;;;;;;7.45;5.05;;;8.70;90.40;;;;;;5053776;28;20187;-86
2023/05/01 02:24:05;;;;;;;6.32;5.07;;;8.70;90.40;;;;;;5054451;28;20197;-91
2023/05/01 02:26:37;;;;;;;5.60;5.10;;;8.60;90.40;;;;;;5052171;28;20202;-90
2023/05/01 02:29:06;;;;;;;6.40;5.18;;;8.60;90.40;;;;;;5050746;28;20208;-91
2023/05/01 02:31:33;;;;;;;5.75;5.22;;;8.60;90.40;;;;;;5052375;28;20226;-91
2023/05/01 02:33:59;;;;;;;7.93;5.10;;;8.70;90.70;;;;;;5042360;28;20182;-90
2023/05/01 02:36:27;;;;;;;6.53;5.80;;;8.80;91.20;;;;;;5051944;28;20209;-90
2023/05/01 02:38:55;;;;;;;6.28;5.43;;;8.80;91.20;;;;;;5051043;28;20501;-89
2023/05/01 02:41:23;;;;;;;5.90;5.05;;;8.70;91.30;;;;;;5054707;28;20186;-90
2023/05/01 02:43:55;;;;;;;7.38;5.90;;;8.60;91.50;;;;;;5049611;28;20198;-91
2023/05/01 02:46:26;;;;;;;7.10;5.93;;;8.50;91.90;;;;;;5052943;28;20253;-91
2023/05/01 02:48:53;;;;;;;5.60;5.00;;;8.60;91.70;;;;;;5053951;28;20187;-90
2023/05/01 02:51:22;;;;;;;5.88;5.20;;;8.60;91.60;;;;;;5050278;28;20317;-90
2023/05/01 02:53:50;;;;;;;6.25;5.65;;;8.50;91.80;;;;;;5048218;28;20192;-90
2023/05/01 02:56:18;;;;;;;5.90;5.30;;;8.40;91.60;;;;;;5052656;28;20558;-89
2023/05/01 02:58:45;;;;;;;5.55;5.05;;;8.20;92.00;;;;;;5054529;28;20207;-90
2023/05/01 03:01:12;;;;;;;6.57;5.40;;;8.10;92.50;;;;;;5051369;28;20186;-88
2023/05/01 03:03:39;;;;;;;6.07;5.47;;;8.20;93.20;;;;;;5050822;28;20202;-90
2023/05/01 03:06:06;;;;;;;6.07;5.47;;;8.10;93.00;;;;;;5054742;28;20206;-90
2023/05/01 03:08:33;;;;;;;7.00;6.13;;;8.10;93.50;;;;;;5050102;28;20254;-90
2023/05/01 03:11:00;;;;;;;7.55;5.97;;;8.10;93.70;;;;;;5050394;28;20193;-90
2023/05/01 03:13:28;;;;;;;7.93;6.80;;;8.10;93.50;;;;;;5051070;28;20199;-89
2023/05/01 03:15:55;;;;;;;7.15;5.80;;;8.20;93.30;;;;;;5044436;28;20207;-89
2023/05/01 03:18:21;;;;;;;8.70;6.40;;;8.20;93.30;;;;;;5051334;28;20210;-89
2023/05/01 03:20:52;;;;;;;6.78;5.85;;;8.10;93.50;;;;;;5050545;28;20197;-91
2023/05/01 03:23:19;;;;;;;7.22;6.03;;;8.10;93.80;;;;;;5053872;28;20206;-90
2023/05/01 03:25:46;;;;;;;6.97;6.20;;;8.10;93.90;;;;;;5048691;28;20214;-90
2023/05/01 03:28:13;;;;;;;6.55;5.53;;;8.10;93.70;;;;;;5053125;28;20185;-89
2023/05/01 03:30:41;;;;;;;6.57;5.88;;;8.10;93.60;;;;;;5053412;28;20195;-89
2023/05/01 03:33:08;;;;;;;8.07;6.18;;;8.00;93.80;;;;;;5053424;28;20209;-88
2023/05/01 03:35:35;;;;;;;6.63;5.80;;;8.00;93.90;;;;;;5051937;28;20190;-89
2023/05/01 03:38:02;;;;;;;7.70;5.55;;;8.10;93.80;;;;;;5050371;28;20237;-89
2023/05/01 03:40:29;;;;;;;7.88;6.15;;;8.20;93.60;;;;;;5054010;28;20195;-90
2023/05/01 03:42:55;;;;;;;6.63;5.53;;;8.10;93.70;;;;;;5052132;28;20209;-90
2023/05/01 03:45:22;;;;;;;7.53;6.00;;;8.00;94.20;;;;;;5045717;28;20226;-90
2023/05/01 03:47:51;;;;;;;7.15;5.93;;;7.90;94.20;;;;;;5046192;28;20187;-90
2023/05/01 03:50:18;;;;;;;7.00;6.00;;;8.00;94.10;;;;;;5246634;22;20276;-91
2023/05/01 03:52:44;;;;;;;6.70;6.00;;;7.90;94.30;;;;;;5050431;28;20174;-91
2023/05/01 03:55:11;;;;;;;6.03;5.43;;;7.90;94.70;;;;;;5052027;28;20183;-92
2023/05/01 03:57:38;;;;;;;8.13;5.97;;;8.10;94.40;;;;;;5265831;22;20232;-86
2023/05/01 04:00:06;;;;;;;7.95;5.97;;;8.10;94.00;;;;;;5028484;28;20203;-91
2023/05/01 04:02:33;;;;;;;6.80;6.10;;;7.90;94.30;;;;;;5035323;28;20175;-91
2023/05/01 04:05:01;;;;;;;6.57;5.97;;;7.80;94.70;;;;;;5034666;28;20194;-86
2023/05/01 04:07:28;;;;;;;8.52;6.20;;;7.80;94.90;;;;;;5028648;28;20205;-89
2023/05/01 04:09:55;;;;;;;7.25;6.55;;;7.70;95.10;;;;;;5029719;28;20209;-91
2023/05/01 04:12:22;;;;;;;6.90;6.20;;;7.70;95.60;;;;;;5035341;28;20199;-91
2023/05/01 04:14:48;;;;;;;7.53;5.95;;;7.70;95.60;;;;;;5033948;28;20187;-89
2023/05/01 04:17:15;;;;;;;8.20;6.35;;;7.90;95.70;;;;;;5033447;28;20199;-90
2023/05/01 04:19:43;;;;;;;7.85;6.68;;;7.90;95.70;;;;;;5079749;22;20214;-91
2023/05/01 04:22:11;;;;;;;7.72;6.30;;;7.90;95.70;;;;;;5073305;28;20220;-90
2023/05/01 04:24:38;;;;;;;7.72;6.40;;;8.00;95.30;;;;;;5067840;28;20198;-90
2023/05/01 04:27:04;;;;;;;6.32;5.72;;;8.10;95.70;;;;;;5068782;28;20221;-91
2023/05/01 04:29:31;;;;;;;6.78;5.97;;;8.00;95.70;;;;;;5433917;22;20241;-90
2023/05/01 04:31:58;;;;;;;7.13;6.10;;;8.10;95.70;;;;;;5362733;22;20218;-91
2023/05/01 04:34:28;;;;;;;8.32;6.25;;;8.10;95.70;;;;;;5270094;22;20231;-91
2023/05/01 04:36:56;;;;;;;8.27;6.60;;;8.10;95.70;;;;;;5081622;28;20178;-89
2023/05/01 04:39:24;;;;;;;9.10;6.80;;;8.10;95.70;;;;;;5076452;28;20217;-90
2023/05/01 04:41:51;;;;;;;8.18;6.25;;;8.10;95.70;;;;;;5080658;28;20188;-89
2023/05/01 04:44:18;;;;;;;7.15;6.43;;;8.20;95.70;;;;;;5080989;28;20201;-90
2023/05/01 04:46:44;;;;;;;8.18;6.47;;;8.30;95.80;;;;;;5079532;28;20310;-89
2023/05/01 04:49:11;;;;;;;7.03;6.30;;;8.40;95.80;;;;;;5077363;28;20196;-90
2023/05/01 04:51:38;;;;;;;7.28;6.53;;;8.60;95.10;;;;;;5078202;28;20202;-90
2023/05/01 04:54:05;;;;;;;7.30;6.30;;;8.70;94.20;;;;;;5079396;28;20198;-88
2023/05/01 04:56:33;;;;;;;8.35;6.65;;;8.80;93.00;;;;;;5079334;28;20196;-90
2023/05/01 04:59:00;;;;;;;9.10;6.40;;;8.90;92.30;;;;;;5076395;28;20185;-88
2023/05/01 05:01:27;;;;;;;6.65;5.93;;;8.90;91.90;;;;;;5074640;28;20205;-90
2023/05/01 05:03:54;;;;;;;6.72;6.00;;;9.00;91.80;;;;;;5074034;28;20202;-90
2023/05/01 05:06:21;;;;;;;6.93;6.18;;;9.00;91.50;;;;;;5078360;28;20228;-90
2023/05/01 05:08:50;;;;;;;6.72;6.13;;;9.00;91.40;;;;;;5078371;28;20193;-90
2023/05/01 05:11:17;;;;;;;6.65;5.68;;;9.10;91.50;;;;;;5073633;28;20202;-92
2023/05/01 05:13:47;;;;;;;7.00;6.30;;;9.20;90.90;;;;;;5080617;28;20199;-91
2023/05/01 05:16:15;;;;;;;9.10;6.28;;;9.30;90.50;;;;;;5078508;28;20213;-91
2023/05/01 05:18:43;;;;;;;6.65;5.75;;;9.40;90.20;;;;;;5072039;28;20222;-88
2023/05/01 05:21:10;;;;;;;6.72;6.00;;;9.50;90.30;;;;;;5067318;28;20199;-91
2023/05/01 05:23:37;;;;;;;6.05;5.45;;;9.50;90.10;;;;;;5068581;28;20275;-91
2023/05/01 05:26:04;;;;;;;6.35;5.75;;;9.60;89.80;;;;;;5070360;28;20219;-90
2023/05/01 05:28:31;;;;;;;7.07;5.72;;;9.70;88.00;;;;;;5072487;28;20254;-87
2023/05/01 05:31:00;;;;;;;6.13;5.53;;;9.90;85.70;;;;;;5067704;28;20191;-90
2023/05/01 05:33:27;;;;;;;6.55;5.65;;;10.00;83.10;;;;;;5066049;28;20254;-90
2023/05/01 05:35:54;;;;;;;11.52;5.63;;;10.00;84.40;;;;;;5064944;28;20202;-91
2023/05/01 05:38:21;;;;;;;6.68;5.20;;;10.30;82.70;;;;;;5067080;28;20201;-91
2023/05/01 05:40:48;;;;;;;7.47;5.30;;;10.60;80.10;;;;;;5064140;28;20190;-90
2023/05/01 05:43:15;;;;;;;7.28;5.63;;;10.60;78.50;;;;;;5064108;28;20205;-92
2023/05/01 05:45:42;;;;;;;7.80;5.55;;;10.60;79.20;;;;;;5058389;28;20698;-91
2023/05/01 05:48:10;;;;;;;7.38;5.15;;;10.80;76.80;;;;;;5058483;28;20202;-91
2023/05/01 05:50:37;;;;;;;6.13;5.00;;;10.80;76.60;;;;;;5060804;28;20218;-91
2023/05/01 05:53:04;;;;;;;8.70;4.80;;;10.90;75.60;;;;;;5058069;28;20315;-91
2023/05/01 05:55:31;;;;;;;7.50;5.22;;;11.10;74.30;;;;;;5059363;28;20194;-91
2023/05/01 05:57:58;;;;;;;5.63;4.65;;;11.10;68.10;;;;;;5056707;28;20206;-91
2023/05/01 06:00:26;;;;;;;5.22;4.72;;;11.00;66.10;;;;;;5058907;28;20232;-91
2023/05/01 06:02:53;;;;;;;5.63;4.95;;;11.00;67.80;;;;;;5058803;28;20198;-91
2023/05/01 06:05:21;;;;;;;5.22;4.75;;;11.00;67.80;;;;;;5062064;28;20217;-92
2023/05/01 06:07:48;;;;;;;6.88;5.18;;;11.00;70.30;;;;;;5054804;28;20219;-91
2023/05/01 06:10:15;;;;;;;5.25;4.75;;;11.10;70.30;;;;;;5060473;28;20700;-91
2023/05/01 06:12:42;;;;;;;5.25;4.75;;;11.10;70.00;;;;;;5061991;28;20549;-91
2023/05/01 06:15:10;;;;;;;8.40;5.00;;;11.10;66.90;;;;;;5061623;28;20206;-92
2023/05/01 06:25:25;;;;;;;5.65;5.15;;;11.30;67.80;;;;;;5118444;22;20233;-87
2023/05/01 06:27:52;;;;;;;6.03;5.45;;;11.30;64.90;;;;;;5253296;22;20186;-89
2023/05/01 06:30:20;;;;;;;5.88;5.03;;;11.30;66.30;;;;;;5085340;28;20288;-92
2023/05/01 06:32:47;;;;;;;5.25;4.75;;;11.30;66.90;;;;;;5074267;28;20205;-90
2023/05/01 06:35:15;;;;;;;5.35;4.78;;;11.40;66.00;;;;;;5067690;28;20197;-93
2023/05/01 06:37:42;;;;;;;6.13;4.60;;;11.40;64.60;;;;;;5076376;28;20203;-91
2023/05/01 06:40:10;;;;;;;8.95;4.68;;;11.40;65.40;;;;;;5093531;28;20201;-91
2023/05/01 06:42:39;;;;;;;5.18;4.30;;;11.60;63.60;;;;;;5090815;28;20194;-91
2023/05/01 06:45:07;;;;;;;5.60;4.80;;;11.70;58.50;;;;;;5077841;28;20236;-91
2023/05/01 06:47:35;;;;;;;5.28;4.20;;;11.50;58.30;;;;;;5070795;28;20655;-90
2023/05/01 06:50:02;;;;;;;6.80;5.30;;;11.40;59.40;;;;;;5073828;28;20198;-90
2023/05/01 06:52:29;;;;;;;5.30;4.55;;;11.30;61.30;;;;;;5082268;28;20204;-92
2023/05/01 06:54:56;;;;;;;5.53;4.78;;;11.40;65.30;;;;;;5073040;28;20209;-88
2023/05/01 06:57:23;;;;;;;5.32;4.60;;;11.60;61.30;;;;;;5063262;28;20217;-89
2023/05/01 06:59:51;;;;;;;6.95;4.47;;;11.70;61.10;;;;;;5071469;28;20189;-89
2023/05/01 07:02:18;;;;;;;5.68;4.60;;;11.80;61.00;;;;;;5064478;28;20202;-89
2023/05/01 07:04:45;;;;;;;6.43;4.50;;;11.90;62.30;;;;;;5072437;28;20212;-90
2023/05/01 07:07:12;;;;;;;7.05;5.40;;;12.10;60.60;;;;;;5068163;28;20209;-92
2023/05/01 07:09:40;;;;;;;5.68;5.13;;;12.10;60.60;;;;;;5063818;28;20650;-92
2023/05/01 07:12:07;;;;;;;5.32;4.78;;;12.20;59.40;;;;;;5054730;28;20289;-90
2023/05/01 07:14:35;;;;;;;8.57;4.90;;;12.00;62.60;;;;;;5063313;28;20669;-91
2023/05/01 07:17:04;;;;;;;5.95;5.03;;;12.00;64.20;;;;;;5071732;28;20271;-91
2023/05/01 07:19:31;;;;;;;5.40;4.90;;;12.00;65.70;;;;;;5067696;28;20213;-90
2023/05/01 07:21:58;;;;;;;6.72;4.90;;;12.00;65.00;;;;;;5067836;28;20217;-88
2023/05/01 07:24:25;;;;;;;6.57;5.40;;;12.00;64.70;;;;;;5064038;28;20220;-88
2023/05/01 07:26:53;;;;;;;6.88;4.60;;;12.10;65.30;;;;;;5070077;28;20232;-90
2023/05/01 07:29:20;;;;;;;6.82;5.05;;;12.10;63.70;;;;;;5074245;28;20272;-90
2023/05/01 07:31:50;;;;;;;7.20;4.82;;;12.10;64.70;;;;;;5073957;28;20186;-91
2023/05/01 07:34:33;;;;;;;5.10;4.63;;;12.40;64.10;;;;;;5081552;28;20248;-92
2023/05/01 07:37:04;;;;;;;8.68;4.90;;;12.60;57.50;;;;;;5077815;28;20197;-92
2023/05/01 07:39:31;;;;;;;8.35;4.93;;;12.70;64.40;;;;;;5079331;28;20227;-93
2023/05/01 07:41:59;;;;;;;5.72;4.90;;;12.80;55.80;;;;;;5074286;28;20198;-93
2023/05/01 07:44:29;;;;;;;5.20;4.70;;;12.90;58.70;;;;;;5066434;28;20228;-88
2023/05/01 07:47:02;;;;;;;4.68;4.28;;;12.90;57.20;;;;;;5071688;28;20584;-91
2023/05/01 07:49:36;;;;;;;5.13;4.63;;;13.20;49.90;;;;;;5079078;28;20212;-90
2023/05/01 07:52:05;;;;;;;6.32;4.82;;;13.30;53.50;;;;;;5075873;28;20209;-91
2023/05/01 07:54:45;;;;;;;6.03;4.50;;;13.40;49.90;;;;;;5072085;28;20609;-93
2023/05/01 07:57:12;;;;;;;6.68;4.90;;;13.40;53.00;;;;;;5070736;28;20205;-93
2023/05/01 07:59:50;;;;;;;5.93;4.60;;;13.40;53.90;;;;;;5074619;28;20227;-90
2023/05/01 08:04:54;;;;;;;4.28;3.88;;;13.40;48.20;;;;;;5217966;22;20217;-88
2023/05/01 08:07:21;;;;;;;6.65;4.20;;;13.40;49.90;;;;;;5937551;22;20241;-89
2023/05/01 08:09:48;;;;;;;4.47;4.07;;;13.30;50.60;;;;;;5044601;28;20260;-90
2023/05/01 08:12:15;;;;;;;5.57;4.50;;;13.30;51.80;;;;;;5044941;28;20252;-89
2023/05/01 08:14:42;;;;;;;5.40;4.28;;;13.20;53.00;;;;;;5051751;28;20649;-93
2023/05/01 08:17:09;;;;;;;4.97;4.47;;;13.10;53.30;;;;;;5040049;28;20270;-94
2023/05/01 08:19:42;;;;;;;4.68;4.28;;;13.10;52.40;;;;;;5034131;28;20337;-92
2023/05/01 08:27:24;;;;;;;4.88;4.40;;;12.80;58.40;;;;;;5198239;22;20267;-90
2023/05/01 08:29:51;;;;;;;4.93;4.13;;;12.80;59.90;;;;;;5053055;28;20211;-92
2023/05/01 08:32:18;;;;;;;5.15;4.65;;;12.90;58.10;;;;;;5061573;28;20392;-91
2023/05/01 08:34:45;;;;;;;5.85;4.97;;;12.90;60.50;;;;;;5063094;28;20182;-94
2023/05/01 08:37:12;;;;;;;5.20;4.70;;;12.70;61.80;;;;;;5388708;22;20243;-93
2023/05/01 08:42:15;;;;;;;6.95;4.82;;;12.60;67.80;;;;;;5316414;22;20612;-90
2023/05/01 08:47:19;;;;;;;5.72;5.13;;;12.70;67.20;;;;;;5690012;22;20471;-93
2023/05/01 08:49:46;;;;;;;5.88;4.72;;;12.70;66.90;;;;;;5030377;28;20187;-89
2023/05/01 08:52:14;;;;;;;5.65;5.05;;;12.70;71.30;;;;;;5030461;28;20255;-90
2023/05/01 08:54:44;;;;;;;5.93;5.25;;;12.80;69.50;;;;;;5239046;22;20535;-92
2023/05/01 08:57:13;;;;;;;8.57;5.18;;;12.80;69.50;;;;;;5046496;28;20230;-88
2023/05/01 08:59:40;;;;;;;6.85;4.80;;;12.90;66.70;;;;;;5062274;28;20199;-93
2023/05/01 09:02:09;;;;;;;5.18;4.70;;;12.90;68.80;;;;;;5032360;28;20213;-92
2023/05/01 09:04:40;;;;;;;5.95;5.25;;;13.00;71.00;;;;;;5031385;28;20226;-94
2023/05/01 09:07:09;;;;;;;7.00;5.10;;;13.00;72.60;;;;;;5032172;28;20218;-94
2023/05/01 09:22:33;;;;;;;6.22;5.60;;;13.20;73.20;;;;;;5118411;22;20234;-94
2023/05/01 09:25:00;;;;;;;6.88;5.25;;;13.30;73.80;;;;;;5043889;28;20208;-88
2023/05/01 09:27:29;;;;;;;6.10;5.40;;;13.40;71.00;;;;;;5889469;22;20990;-89
2023/05/01 09:45:30;;;;;;;8.43;6.88;;;13.40;79.20;;;;;;4995865;28;20219;-93
2023/05/01 09:48:13;;;;;;;7.38;6.68;;;13.20;79.50;;;;;;5002016;28;20223;-90
2023/05/01 09:50:43;;;;;;;7.70;6.78;;;13.10;82.40;;;;;;4993713;28;20254;-90
2023/05/01 09:53:11;;;;;;;7.25;6.55;;;13.10;82.40;;;;;;4968500;28;20266;-93
2023/05/01 09:55:38;;;;;;;7.78;6.78;;;13.00;84.10;;;;;;5003409;28;20203;-92
2023/05/01 09:58:05;;;;;;;8.23;7.40;;;13.00;83.40;;;;;;4999001;28;20200;-93
2023/05/01 10:00:49;;;;;;;8.07;7.28;;;12.90;83.20;;;;;;5540713;22;20277;-93
2023/05/01 10:03:19;;;;;;;8.38;7.57;;;12.80;84.70;;;;;;5928703;22;21328;-92
2023/05/01 10:11:07;;;;;;;8.93;7.57;;;13.20;83.50;;;;;;5065411;28;20224;-92
2023/05/01 10:13:33;;;;;;;33.15;16.17;;;13.20;84.80;;;;;;5057216;28;20229;-94
2023/05/01 10:16:06;;;;;;;8.15;7.22;;;13.30;84.80;;;;;;5059113;28;20220;-93
2023/05/01 10:18:34;;;;;;;10.07;7.13;;;13.30;83.00;;;;;;5053676;28;20225;-93
2023/05/01 10:21:01;;;;;;;20.55;13.38;;;13.10;83.30;;;;;;5057528;28;20197;-94
2023/05/01 10:23:29;;;;;;;9.25;8.30;;;13.10;85.20;;;;;;5058454;28;20293;-93
2023/05/01 10:25:57;;;;;;;8.23;7.20;;;13.10;84.50;;;;;;5058261;28;20218;-89
2023/05/01 10:28:27;;;;;;;9.13;7.72;;;12.90;89.30;;;;;;5048089;28;20207;-89
2023/05/01 10:30:56;;;;;;;10.13;7.72;;;12.80;90.50;;;;;;5044113;28;20225;-91
2023/05/01 10:33:26;;;;;;;8.88;7.97;;;12.70;90.90;;;;;;5044578;28;20198;-91
2023/05/01 10:35:59;;;;;;;8.40;7.60;;;12.70;91.40;;;;;;5047458;28;20206;-90
2023/05/01 10:38:33;;;;;;;9.13;8.23;;;12.60;91.90;;;;;;5049468;28;20208;-91
2023/05/01 10:40:59;;;;;;;9.25;8.25;;;12.60;91.60;;;;;;5045103;28;20199;-90
2023/05/01 10:43:28;;;;;;;9.00;8.15;;;12.60;91.10;;;;;;5060920;28;20732;-91
2023/05/01 10:46:25;;;;;;;11.10;8.68;;;12.70;91.00;;;;;;5043918;28;20190;-93
2023/05/01 10:48:59;;;;;;;9.70;8.70;;;12.50;91.20;;;;;;5060840;28;20339;-92
2023/05/01 10:51:27;;;;;;;10.27;9.05;;;12.40;92.40;;;;;;5058243;28;20190;-92
2023/05/01 10:56:43;;;;;;;10.63;9.63;;;12.00;92.40;;;;;;5569989;22;21200;-89
2023/05/01 10:59:11;;;;;;;10.55;9.38;;;11.90;93.20;;;;;;5025163;28;20184;-92
2023/05/01 11:01:39;;;;;;;10.60;9.35;;;11.90;93.60;;;;;;5026147;28;20254;-90
2023/05/01 11:04:49;;;;;;;10.85;9.68;;;11.80;94.30;;;;;;5289173;22;20307;-92
2023/05/01 11:07:18;;;;;;;11.02;9.80;;;11.80;94.30;;;;;;5026444;28;20228;-91
2023/05/01 11:09:46;;;;;;;11.20;10.07;;;11.90;94.30;;;;;;5027234;28;20207;-89
2023/05/01 11:12:14;;;;;;;12.50;10.45;;;11.80;94.30;;;;;;5279806;22;20233;-92
2023/05/01 11:17:48;;;;;;;12.50;11.13;;;11.80;95.60;;;;;;5236376;22;20215;-92
2023/05/01 11:20:50;;;;;;;12.00;10.35;;;11.90;96.20;;;;;;5027890;28;20207;-92
2023/05/01 11:23:22;;;;;;;11.60;10.32;;;12.10;95.90;;;;;;5028479;28;20480;-91
2023/05/01 11:25:50;;;;;;;11.43;10.32;;;12.10;96.00;;;;;;5028861;28;20196;-92
2023/05/01 11:28:24;;;;;;;12.05;10.80;;;12.10;96.00;;;;;;5024823;28;20230;-93
2023/05/01 11:30:51;;;;;;;13.85;10.73;;;12.10;96.20;;;;;;5022143;28;20199;-92
2023/05/01 11:33:26;;;;;;;13.43;10.68;;;12.10;96.20;;;;;;5017505;28;20334;-93
2023/05/01 11:36:04;;;;;;;12.70;11.40;;;12.30;95.70;;;;;;5021405;28;20204;-92
2023/05/01 11:38:31;;;;;;;11.57;10.35;;;12.20;96.20;;;;;;5017798;28;20226;-93
2023/05/01 11:41:02;;;;;;;12.40;11.10;;;12.10;96.20;;;;;;5021266;28;20199;-92
2023/05/01 11:43:29;;;;;;;12.95;10.90;;;12.00;96.20;;;;;;5013439;28;20203;-93
2023/05/01 11:46:01;;;;;;;13.20;11.55;;;12.00;96.50;;;;;;5021866;28;20187;-90
2023/05/01 11:48:29;;;;;;;12.82;11.07;;;12.00;97.70;;;;;;5009010;28;20219;-90
2023/05/01 11:50:56;;;;;;;12.68;11.07;;;12.00;98.00;;;;;;5012243;28;20204;-89
2023/05/01 11:53:24;;;;;;;12.82;11.40;;;12.00;98.30;;;;;;5010153;28;20222;-90
2023/05/01 11:55:51;;;;;;;12.90;11.55;;;12.10;98.30;;;;;;5006956;28;20198;-90
2023/05/01 11:58:29;;;;;;;13.50;12.10;;;12.20;98.30;;;;;;5007121;28;20207;-90
2023/05/01 12:00:57;;;;;;;12.15;10.90;;;12.40;98.40;;;;;;5008339;28;20206;-89
2023/05/01 12:03:24;;;;;;;11.77;10.57;;;12.60;97.70;;;;;;5030097;28;20203;-93
2023/05/01 12:05:52;;;;;;;11.15;10.02;;;12.90;96.40;;;;;;5000935;28;20217;-91
2023/05/01 12:08:21;;;;;;;11.13;10.10;;;13.10;96.40;;;;;;5012407;28;20306;-91
2023/05/01 12:10:51;;;;;;;12.23;10.98;;;13.10;95.80;;;;;;5007348;28;20207;-91
2023/05/01 12:13:18;;;;;;;11.52;10.43;;;13.00;96.40;;;;;;5018290;28;20195;-93
2023/05/01 12:15:46;;;;;;;11.45;10.30;;;12.80;95.50;;;;;;5025145;28;20231;-92
2023/05/01 12:18:14;;;;;;;11.60;10.50;;;12.80;96.10;;;;;;5012446;28;20226;-93
2023/05/01 12:20:47;;;;;;;10.85;9.75;;;13.00;95.80;;;;;;5018740;28;20223;-93
2023/05/01 12:23:16;;;;;;;11.18;10.07;;;13.30;94.50;;;;;;5017719;28;20202;-93
2023/05/01 12:25:44;;;;;;;10.52;9.50;;;13.40;94.10;;;;;;5011260;28;20206;-93
2023/05/01 12:28:14;;;;;;;10.50;9.40;;;13.50;93.90;;;;;;5013995;28;20223;-93
2023/05/01 12:30:44;;;;;;;10.27;9.27;;;13.60;92.90;;;;;;5009666;28;20227;-92
2023/05/01 12:33:12;;;;;;;10.43;8.90;;;13.50;92.50;;;;;;5008983;28;20206;-90
2023/05/01 12:35:40;;;;;;;11.23;9.45;;;13.60;92.20;;;;;;5009680;28;20295;-92
2023/05/01 12:38:12;;;;;;;10.95;9.30;;;13.60;93.60;;;;;;4995367;28;20212;-89
2023/05/01 12:40:40;;;;;;;11.02;10.02;;;13.60;93.10;;;;;;5010479;28;20265;-90
2023/05/01 12:43:07;;;;;;;10.20;9.18;;;13.90;92.20;;;;;;5012096;28;20783;-91
2023/05/01 12:45:40;;;;;;;8.98;8.18;;;14.00;91.20;;;;;;5011904;28;20226;-91
2023/05/01 12:48:13;;;;;;;10.38;9.07;;;14.20;90.60;;;;;;4998947;28;20286;-90
2023/05/01 12:50:41;;;;;;;10.57;9.52;;;13.90;91.20;;;;;;5008777;28;20297;-90
2023/05/01 12:53:09;;;;;;;10.40;9.35;;;13.80;91.20;;;;;;5006004;28;20209;-89
2023/05/01 12:55:45;;;;;;;10.30;9.20;;;13.70;91.40;;;;;;5006616;28;20231;-90
2023/05/01 12:58:12;;;;;;;10.25;8.80;;;13.70;91.20;;;;;;5003096;28;20218;-90
2023/05/01 13:00:46;;;;;;;9.93;8.93;;;13.90;90.70;;;;;;5008318;28;20199;-89
2023/05/01 13:03:15;;;;;;;9.60;8.70;;;14.10;90.50;;;;;;5010007;28;20199;-89
2023/05/01 13:05:56;;;;;;;8.85;8.05;;;14.10;88.10;;;;;;5011019;28;20698;-90
2023/05/01 13:08:31;;;;;;;9.57;8.18;;;14.10;90.10;;;;;;5008387;28;20214;-90
2023/05/01 13:11:01;;;;;;;8.85;7.95;;;14.10;85.40;;;;;;5025439;28;20207;-90
2023/05/01 13:13:30;;;;;;;10.00;9.00;;;14.20;89.00;;;;;;5022159;28;20740;-90
2023/05/01 13:16:07;;;;;;;10.52;9.43;;;14.30;90.40;;;;;;5000232;28;20367;-89
2023/05/01 13:18:42;;;;;;;9.60;8.70;;;14.40;90.20;;;;;;5003586;28;20215;-89
2023/05/01 13:21:10;;;;;;;9.40;8.40;;;14.50;89.60;;;;;;5005728;28;20195;-90
2023/05/01 13:23:38;;;;;;;9.18;8.35;;;14.70;83.40;;;;;;5006392;28;20596;-89
2023/05/01 13:26:06;;;;;;;9.27;8.32;;;14.80;82.40;;;;;;5010295;28;20206;-92
2023/05/01 13:28:35;;;;;;;8.95;8.13;;;14.90;81.40;;;;;;5008542;28;20276;-90
2023/05/01 13:31:01;;;;;;;9.40;8.13;;;15.00;77.30;;;;;;5007342;28;20679;-90
2023/05/01 13:33:32;;;;;;;9.15;8.00;;;14.90;78.90;;;;;;5004756;28;20204;-89
2023/05/01 13:35:58;;;;;;;9.10;8.18;;;14.90;77.20;;;;;;5004467;28;20254;-89
2023/05/01 13:38:25;;;;;;;8.77;7.88;;;14.90;78.90;;;;;;5008817;28;20199;-89
2023/05/01 13:40:53;;;;;;;9.50;8.60;;;14.80;77.10;;;;;;5007095;28;20199;-91
2023/05/01 13:43:21;;;;;;;13.50;9.68;;;14.60;80.50;;;;;;5011157;28;20258;-89
2023/05/01 13:45:48;;;;;;;10.95;8.25;;;14.50;78.50;;;;;;5005473;28;20281;-90
2023/05/01 13:48:18;;;;;;;9.10;8.00;;;14.40;79.00;;;;;;5015940;28;20222;-93
2023/05/01 13:50:47;;;;;;;8.68;7.88;;;14.40;83.40;;;;;;5009989;28;20207;-91
2023/05/01 13:53:14;;;;;;;8.93;8.13;;;14.60;78.70;;;;;;5010436;28;20942;-92
2023/05/01 13:55:42;;;;;;;9.27;8.32;;;14.80;77.80;;;;;;5017882;28;20199;-94
2023/05/01 13:58:09;;;;;;;17.17;15.07;;;14.60;77.00;;;;;;5036827;28;20257;-94
2023/05/01 14:00:36;;;;;;;9.20;7.97;;;14.80;77.10;;;;;;5019646;28;20290;-92